CheckWX is a tool to help pilots better visualize weather data.  It is not intended as a substitute for an official pre-flight weather briefing.

12:50:05 UTC

CYXZ METAR
Wawa Airport
Wawa, Canada
Current

37 mins ago

CYXZ 221213Z 00000KT 15SM OVC030 M05/M08 A3031 RMK SC8 SLP286
Observed
Feb-22 @ 12:13 UTC
Visibility
15 SM
Flight Rules
MVFR
Cloud Levels
  • Overcast at 3,000' AGL
Temperature
-5°C / 23°F
Dewpoint
-8°C / 18°F
Humidity
80%
Altimeter
30.31" Hg
Pressure
1028.6 hPa
Previous

2 hours ago

CYXZ 221100Z 26003KT 210V290 15SM -SN OVC031 M05/M05 A3031 RMK SC8 SLP284
Observed
Feb-22 @ 11:00 UTC
Wind
  • 260° at 3 KTS
Visibility
15 SM
Flight Rules
VFR
Conditions
Light Snow
Cloud Levels
  • Overcast at 3,100' AGL
Temperature
-5°C / 23°F
Dewpoint
-5°C / 23°F
Humidity
100%
Altimeter
30.31" Hg
Pressure
1028.4 hPa
Previous

13 hours ago

CYXZ 220000Z 00000KT 15SM BKN024 M05/M06 A3007 RMK SC7 LAST OBS/NEXT 221100 UTC SLP207
Observed
Feb-22 @ 00:00 UTC
Visibility
15 SM
Flight Rules
MVFR
Cloud Levels
  • Broken at 2,400' AGL
Temperature
-5°C / 23°F
Dewpoint
-6°C / 21°F
Humidity
93%
Altimeter
30.07" Hg
Pressure
1020.7 hPa